Time;durP1;ratioP1;P1;durP2;ratioP2;P2;SDS_P1;SDS_P2;PMS_P1;PMS_P2;Temp;Humidity;BMP_temperature;BMP_pressure;BME280_temperature;BME280_humidity;BME280_pressure;Samples;Min_cycle;Max_cycle;Signal;HPM_P1;HPM_P2
2021/12/05 00:24:24;;;;;;;9.68;5.45;;;10.30;99.90;;;;;;4974884;28;20062;-69
2021/12/05 00:27:01;;;;;;;10.60;5.90;;;10.30;99.90;;;;;;4943196;28;20058;-70
2021/12/05 00:29:35;;;;;;;9.45;6.00;;;10.60;99.90;;;;;;4947022;28;20050;-69
2021/12/05 01:07:22;;;;;;;11.18;6.57;;;10.70;99.90;;;;;;4997355;28;20141;-69
2021/12/05 01:10:14;;;;;;;10.70;5.82;;;10.50;99.90;;;;;;5014289;28;20054;-70
2021/12/05 01:15:23;;;;;;;10.85;6.22;;;10.90;99.90;;;;;;4997136;28;20050;-67
2021/12/05 01:20:19;;;;;;;10.55;5.82;;;10.70;99.90;;;;;;4996857;28;20132;-69
2021/12/05 01:22:51;;;;;;;11.02;5.72;;;10.50;99.90;;;;;;5013500;28;20061;-69
2021/12/05 01:28:00;;;;;;;11.38;6.10;;;;;;;;;;4992236;28;20142;-67
2021/12/05 01:35:57;;;;;;;10.55;5.60;;;10.70;99.90;;;;;;5029610;28;20437;-68
2021/12/05 02:35:35;;;;;;;8.95;5.13;;;10.60;99.90;;;;;;5035018;28;20547;-69
2021/12/05 02:38:46;;;;;;;10.82;5.18;;;10.70;99.90;;;;;;5007682;28;20059;-67
2021/12/05 02:43:36;;;;;;;9.57;4.90;;;10.50;99.90;;;;;;5019374;28;20053;-68
2021/12/05 02:46:04;;;;;;;9.68;5.00;;;10.90;99.90;;;;;;5034730;28;20052;-68
2021/12/05 02:48:32;;;;;;;10.02;4.72;;;10.60;99.90;;;;;;5034760;28;20061;-70
2021/12/05 02:50:58;;;;;;;11.68;5.05;;;10.60;99.90;;;;;;5002403;28;20045;-69
2021/12/05 02:56:14;;;;;;;10.48;4.75;;;;;;;;;;5014928;28;20069;-68
2021/12/05 02:58:50;;;;;;;10.05;4.40;;;10.60;99.90;;;;;;4998566;28;20053;-69
2021/12/05 03:01:22;;;;;;;12.40;5.22;;;10.80;99.90;;;;;;5022393;28;20103;-67
2021/12/05 03:03:48;;;;;;;9.68;4.65;;;10.70;99.90;;;;;;5051268;28;20158;-68
2021/12/05 03:06:19;;;;;;;11.02;4.85;;;10.50;99.90;;;;;;5018003;28;20079;-70
2021/12/05 03:08:46;;;;;;;10.18;5.10;;;10.10;99.90;;;;;;5051131;28;20036;-67
2021/12/05 03:11:12;;;;;;;10.75;4.72;;;10.40;99.90;;;;;;5034757;28;20056;-68
2021/12/05 03:13:40;;;;;;;11.40;4.82;;;10.20;99.90;;;;;;5041091;28;20490;-69
2021/12/05 03:16:06;;;;;;;11.38;4.80;;;10.50;99.90;;;;;;5054409;28;20109;-68
2021/12/05 03:18:32;;;;;;;8.35;4.57;;;10.50;99.90;;;;;;5054310;28;20048;-68
2021/12/05 03:20:58;;;;;;;9.88;4.78;;;10.80;99.90;;;;;;5054816;28;20056;-67
2021/12/05 03:23:25;;;;;;;7.70;4.00;;;10.80;99.90;;;;;;5038115;28;20052;-70
2021/12/05 03:25:51;;;;;;;7.93;4.35;;;10.60;99.90;;;;;;5054307;28;20091;-70
2021/12/05 03:28:17;;;;;;;10.20;4.10;;;10.60;99.90;;;;;;5071441;28;20047;-69
2021/12/05 03:30:45;;;;;;;9.18;4.80;;;10.50;99.90;;;;;;5054303;28;20521;-70
2021/12/05 03:33:11;;;;;;;7.25;3.80;;;;;;;;;;5050034;28;20060;-69
2021/12/05 03:35:37;;;;;;;8.05;4.30;;;10.70;99.90;;;;;;5093533;28;20079;-69
2021/12/05 03:38:03;;;;;;;9.05;3.90;;;10.50;99.90;;;;;;5092384;28;20086;-69
2021/12/05 03:40:29;;;;;;;9.40;4.10;;;10.60;99.90;;;;;;5075074;28;20040;-69
2021/12/05 03:42:55;;;;;;;8.38;4.00;;;10.60;99.90;;;;;;5042043;28;20138;-70
2021/12/05 03:45:25;;;;;;;8.05;3.60;;;10.60;99.90;;;;;;5075055;28;20130;-69
2021/12/05 03:47:51;;;;;;;7.30;3.65;;;;;;;;;;5058761;28;20101;-68
2021/12/05 03:50:17;;;;;;;8.82;3.75;;;;;;;;;;5075488;28;20390;-69
2021/12/05 03:52:43;;;;;;;8.43;3.90;;;10.60;99.90;;;;;;5093158;28;20126;-68
2021/12/05 03:55:10;;;;;;;9.80;4.15;;;10.50;99.90;;;;;;5091972;28;20081;-69
2021/12/05 03:57:36;;;;;;;8.55;3.55;;;10.70;99.90;;;;;;5075007;28;20513;-68
2021/12/05 04:00:08;;;;;;;6.10;3.38;;;10.90;99.90;;;;;;5091723;28;20044;-69
2021/12/05 04:02:34;;;;;;;9.77;3.88;;;10.70;99.90;;;;;;5059148;28;20078;-68
2021/12/05 04:04:59;;;;;;;9.95;4.05;;;10.50;99.90;;;;;;5079123;28;20036;-67
2021/12/05 04:07:25;;;;;;;7.75;3.80;;;;;;;;;;5095912;28;20075;-70
2021/12/05 04:09:52;;;;;;;8.10;3.72;;;;;;;;;;5096158;28;20115;-67
2021/12/05 04:12:17;;;;;;;7.13;3.65;;;10.70;99.90;;;;;;5095752;28;20139;-69
2021/12/05 04:14:45;;;;;;;8.18;3.60;;;10.90;99.90;;;;;;5097033;28;20115;-68
2021/12/05 04:17:12;;;;;;;8.13;3.72;;;10.30;99.90;;;;;;5095510;28;20064;-67
2021/12/05 04:19:38;;;;;;;7.75;3.70;;;10.10;99.90;;;;;;5096643;28;20092;-69
2021/12/05 04:22:04;;;;;;;7.68;3.35;;;10.70;99.90;;;;;;5095398;28;20083;-68
2021/12/05 04:24:31;;;;;;;8.38;3.47;;;10.80;99.90;;;;;;5078663;28;20048;-67
2021/12/05 04:26:57;;;;;;;8.85;3.83;;;10.30;99.90;;;;;;5095476;28;20507;-70
2021/12/05 04:29:23;;;;;;;6.95;3.45;;;10.60;99.90;;;;;;5095424;28;20051;-69
2021/12/05 04:31:49;;;;;;;8.38;3.58;;;10.30;99.90;;;;;;5078401;28;20098;-68
2021/12/05 04:34:15;;;;;;;7.72;3.90;;;;;;;;;;5078406;28;20048;-68
2021/12/05 04:36:41;;;;;;;9.02;3.70;;;;;;;;;;5096553;28;20040;-68
2021/12/05 04:39:07;;;;;;;9.25;4.03;;;10.70;99.90;;;;;;5095416;28;20039;-70
2021/12/05 04:41:33;;;;;;;8.20;3.75;;;10.60;99.90;;;;;;5095648;28;20607;-70
2021/12/05 04:43:59;;;;;;;9.35;4.05;;;10.70;99.90;;;;;;5061343;28;20051;-68
2021/12/05 04:46:25;;;;;;;8.52;3.80;;;10.80;99.90;;;;;;5061335;28;20043;-69
2021/12/05 04:48:52;;;;;;;7.13;3.58;;;10.20;99.90;;;;;;5096706;28;20052;-69
2021/12/05 04:51:20;;;;;;;8.98;3.70;;;10.70;99.90;;;;;;5077973;28;20040;-70
2021/12/05 04:53:46;;;;;;;9.05;4.03;;;10.60;99.90;;;;;;5094981;28;20501;-69
2021/12/05 04:56:12;;;;;;;10.00;3.90;;;10.50;99.90;;;;;;5094774;28;20048;-68
2021/12/05 04:58:38;;;;;;;8.13;4.13;;;;;;;;;;5094663;28;20080;-70
2021/12/05 05:01:05;;;;;;;7.45;4.20;;;10.50;99.90;;;;;;5094515;28;20055;-68
2021/12/05 05:03:30;;;;;;;9.00;4.25;;;10.30;99.90;;;;;;5061175;28;20044;-68
2021/12/05 05:08:52;;;;;;;9.93;4.30;;;10.50;99.90;;;;;;5011621;28;20041;-67
2021/12/05 05:11:19;;;;;;;9.45;4.40;;;10.70;99.90;;;;;;5053305;28;20045;-69
2021/12/05 05:13:46;;;;;;;12.43;4.40;;;10.60;99.90;;;;;;5019715;28;20049;-70
2021/12/05 05:16:14;;;;;;;10.77;4.30;;;10.40;99.90;;;;;;5019958;28;20061;-67
2021/12/05 05:18:48;;;;;;;10.00;4.40;;;10.70;99.90;;;;;;5036485;28;20087;-67
2021/12/05 05:22:04;;;;;;;9.02;3.92;;;10.50;99.90;;;;;;5053047;28;20132;-68
2021/12/05 05:40:06;;;;;;;9.93;4.50;;;10.60;99.90;;;;;;5015978;28;20049;-68
2021/12/05 05:50:12;;;;;;;8.68;4.40;;;10.60;99.90;;;;;;5073350;28;20084;-67
2021/12/05 05:52:37;;;;;;;11.82;4.82;;;10.50;99.90;;;;;;5073547;28;20129;-70
2021/12/05 05:55:04;;;;;;;11.10;4.63;;;10.40;99.90;;;;;;5073259;28;20059;-69
2021/12/05 05:58:01;;;;;;;10.45;4.97;;;;;;;;;;5074801;28;20052;-70
2021/12/05 06:00:38;;;;;;;10.80;5.03;;;10.80;99.90;;;;;;5074441;28;20052;-67
2021/12/05 06:03:21;;;;;;;12.02;4.38;;;10.80;99.90;;;;;;5074541;28;20051;-69
2021/12/05 06:05:55;;;;;;;10.43;4.75;;;10.50;99.90;;;;;;5073339;28;20433;-70
2021/12/05 06:08:24;;;;;;;9.80;4.72;;;10.50;99.90;;;;;;5040441;28;20083;-68
2021/12/05 06:10:50;;;;;;;9.43;4.75;;;10.60;99.90;;;;;;5040607;28;20051;-70
2021/12/05 06:13:18;;;;;;;9.80;4.63;;;;;;;;;;5039838;28;20052;-69
2021/12/05 06:15:46;;;;;;;9.70;5.10;;;10.80;99.90;;;;;;5073135;28;20371;-69
2021/12/05 06:18:11;;;;;;;12.20;5.03;;;10.50;99.90;;;;;;5056117;28;20057;-68
2021/12/05 06:20:37;;;;;;;8.38;4.43;;;10.80;99.90;;;;;;5056196;28;20060;-69
2021/12/05 06:23:03;;;;;;;9.73;4.47;;;10.60;99.90;;;;;;5056343;28;20048;-69
2021/12/05 06:25:33;;;;;;;8.48;4.40;;;10.50;99.90;;;;;;5069507;28;20460;-70
2021/12/05 06:28:02;;;;;;;9.93;4.40;;;10.70;99.90;;;;;;5060133;28;20051;-68
2021/12/05 06:46:27;;;;;;;9.05;4.60;;;10.50;99.90;;;;;;5092222;28;20059;-68
2021/12/05 06:48:53;;;;;;;7.85;4.15;;;10.60;99.90;;;;;;5077872;28;20076;-68
2021/12/05 06:51:23;;;;;;;12.73;4.90;;;10.50;99.90;;;;;;5075992;28;20044;-69
2021/12/05 06:53:49;;;;;;;8.55;4.20;;;10.50;99.90;;;;;;5076159;28;20075;-68
2021/12/05 06:56:15;;;;;;;9.32;4.78;;;10.50;99.90;;;;;;5092598;28;20109;-70
2021/12/05 06:58:41;;;;;;;10.60;4.40;;;10.50;99.90;;;;;;5092667;28;20519;-69
2021/12/05 07:01:08;;;;;;;10.20;4.50;;;10.60;99.90;;;;;;5092510;28;20485;-69
2021/12/05 07:03:34;;;;;;;10.95;4.40;;;10.20;99.90;;;;;;5092284;28;20425;-67
2021/12/05 07:08:28;;;;;;;10.63;4.22;;;10.50;99.90;;;;;;5092420;28;20493;-67
2021/12/05 07:11:04;;;;;;;10.43;4.55;;;10.20;99.90;;;;;;5092278;28;20134;-66
2021/12/05 07:16:06;;;;;;;8.95;3.90;;;10.50;99.90;;;;;;5075699;28;20051;-71
2021/12/05 07:26:18;;;;;;;8.60;3.80;;;10.50;99.90;;;;;;5092060;28;20065;-69
2021/12/05 07:42:28;;;;;;;10.23;3.90;;;10.60;99.90;;;;;;5096116;28;20040;-68
2021/12/05 07:44:55;;;;;;;8.85;3.63;;;10.60;99.90;;;;;;5079555;28;20530;-67
2021/12/05 07:47:24;;;;;;;8.45;4.47;;;10.50;99.90;;;;;;5096310;28;20382;-67
2021/12/05 07:49:53;;;;;;;12.10;3.63;;;10.50;99.90;;;;;;5079478;28;20048;-70
2021/12/05 07:52:23;;;;;;;9.45;4.15;;;10.40;99.90;;;;;;5079549;28;20470;-70
2021/12/05 07:55:13;;;;;;;9.55;3.75;;;10.60;99.90;;;;;;5062939;28;20058;-69
2021/12/05 07:58:00;;;;;;;13.07;4.32;;;10.90;99.90;;;;;;5095795;28;20056;-69
2021/12/05 08:16:34;;;;;;;12.20;3.85;;;;;;;;;;5092063;28;20047;-67
2021/12/05 08:19:00;;;;;;;8.90;3.90;;;10.50;99.90;;;;;;5094134;28;20048;-67
2021/12/05 08:21:26;;;;;;;10.18;3.83;;;10.70;99.90;;;;;;5058038;28;20064;-68
2021/12/05 08:23:52;;;;;;;11.13;4.07;;;;;;;;;;5075282;28;20079;-68
2021/12/05 08:26:22;;;;;;;10.48;4.72;;;10.70;99.90;;;;;;5094863;28;20105;-66
2021/12/05 08:41:58;;;;;;;11.13;4.18;;;10.50;99.90;;;;;;5060953;28;20044;-69
2021/12/05 10:02:45;;;;;;;11.93;4.80;;;10.60;99.90;;;;;;5015482;28;20052;-68
2021/12/05 10:38:39;;;;;;;11.68;5.30;;;10.70;99.90;;;;;;5058590;28;20397;-70
2021/12/05 10:43:40;;;;;;;10.50;5.05;;;10.40;99.90;;;;;;5072514;28;20084;-69
2021/12/05 10:46:08;;;;;;;10.45;4.80;;;10.60;99.90;;;;;;5055875;28;20052;-69
2021/12/05 10:48:36;;;;;;;10.52;5.30;;;10.60;99.90;;;;;;5072768;28;20040;-69
2021/12/05 10:51:05;;;;;;;11.73;5.20;;;10.70;99.90;;;;;;5072287;28;20110;-69
2021/12/05 10:53:45;;;;;;;10.32;4.93;;;10.70;99.90;;;;;;5038976;28;20048;-67
2021/12/05 10:56:25;;;;;;;13.93;5.18;;;10.50;99.90;;;;;;5053177;28;20524;-69
2021/12/05 10:58:58;;;;;;;11.23;5.45;;;10.50;99.90;;;;;;5055802;28;20102;-68
2021/12/05 11:01:34;;;;;;;11.43;4.97;;;10.50;99.90;;;;;;5068001;28;20455;-70
2021/12/05 11:04:07;;;;;;;10.77;4.88;;;10.60;99.90;;;;;;5071627;28;20062;-67
2021/12/05 11:06:36;;;;;;;8.95;4.80;;;10.60;99.90;;;;;;5071080;28;20061;-67
2021/12/05 11:09:16;;;;;;;11.15;5.15;;;10.50;99.90;;;;;;5071289;28;20059;-67
2021/12/05 11:11:45;;;;;;;11.82;4.88;;;10.60;99.90;;;;;;5090771;28;20048;-67
2021/12/05 11:14:17;;;;;;;12.32;5.70;;;10.60;99.90;;;;;;5091407;28;20450;-67
2021/12/05 11:16:45;;;;;;;9.02;5.28;;;;;;;;;;5092009;28;20078;-67
2021/12/05 11:19:31;;;;;;;9.07;5.00;;;10.80;99.90;;;;;;5092684;28;20052;-67
2021/12/05 11:21:59;;;;;;;13.57;5.18;;;;;;;;;;5090441;28;20558;-67
2021/12/05 11:24:27;;;;;;;14.50;5.18;;;;;;;;;;5091077;28;20055;-66
2021/12/05 11:27:15;;;;;;;12.27;5.35;;;10.70;99.90;;;;;;5074542;28;20046;-70
2021/12/05 11:30:19;;;;;;;12.35;5.63;;;10.70;99.90;;;;;;5074231;28;20123;-69
2021/12/05 11:32:51;;;;;;;10.93;5.10;;;;;;;;;;4995082;28;20058;-69
2021/12/05 11:35:37;;;;;;;9.70;5.35;;;10.50;99.90;;;;;;4977924;28;20136;-70
2021/12/05 11:38:03;;;;;;;12.77;5.18;;;;;;;;;;4994162;28;20109;-69
2021/12/05 11:40:42;;;;;;;11.80;5.30;;;10.90;99.90;;;;;;4993754;28;20135;-69
2021/12/05 11:43:08;;;;;;;9.77;5.30;;;10.60;99.90;;;;;;4997451;28;20128;-69
2021/12/05 11:45:48;;;;;;;11.10;4.80;;;;;;;;;;4996794;28;20223;-70
2021/12/05 11:48:24;;;;;;;12.80;4.95;;;10.60;99.90;;;;;;5013524;28;20157;-67
2021/12/05 11:50:50;;;;;;;10.88;4.82;;;;;;;;;;5030037;28;20057;-69
2021/12/05 11:53:36;;;;;;;9.65;4.97;;;10.80;99.90;;;;;;5013623;28;20045;-69
2021/12/05 11:56:02;;;;;;;10.70;4.78;;;10.60;99.90;;;;;;4997485;28;20069;-70
2021/12/05 11:58:29;;;;;;;9.05;4.80;;;10.30;99.90;;;;;;5013478;28;20033;-70
2021/12/05 12:01:03;;;;;;;10.55;5.10;;;10.90;99.90;;;;;;5013209;28;20041;-70
2021/12/05 12:03:34;;;;;;;9.40;4.78;;;10.80;99.90;;;;;;5013852;28;20176;-69
2021/12/05 12:06:00;;;;;;;8.45;4.18;;;10.60;99.90;;;;;;5030819;28;20053;-69
2021/12/05 12:08:26;;;;;;;9.73;4.90;;;10.70;99.90;;;;;;5064435;28;20048;-70
2021/12/05 12:10:57;;;;;;;11.73;5.47;;;10.80;99.90;;;;;;5074975;28;20047;-69
2021/12/05 12:13:27;;;;;;;13.55;5.88;;;10.40;99.90;;;;;;5091910;28;20058;-69
2021/12/05 12:16:06;;;;;;;9.23;4.82;;;10.70;99.90;;;;;;5091602;28;20052;-69
2021/12/05 12:18:39;;;;;;;10.80;5.53;;;10.60;99.90;;;;;;5089520;28;20083;-70
2021/12/05 12:21:11;;;;;;;8.98;4.82;;;10.60;99.90;;;;;;5075957;28;20465;-69
2021/12/05 12:23:38;;;;;;;10.70;5.07;;;;;;;;;;5038692;28;20094;-69
2021/12/05 12:26:05;;;;;;;9.75;5.05;;;10.80;99.90;;;;;;5074898;28;20056;-70
2021/12/05 12:28:31;;;;;;;10.40;4.65;;;10.70;99.90;;;;;;5058855;28;20119;-67
2021/12/05 12:30:59;;;;;;;9.38;4.72;;;10.70;99.90;;;;;;5058614;28;20398;-69
2021/12/05 12:33:33;;;;;;;13.90;5.18;;;10.80;99.90;;;;;;5058365;28;20394;-70
2021/12/05 12:35:59;;;;;;;9.18;5.13;;;10.90;99.90;;;;;;5058155;28;20055;-70
2021/12/05 12:38:37;;;;;;;8.75;5.18;;;10.40;99.90;;;;;;5025137;28;20041;-68
2021/12/05 12:41:16;;;;;;;10.90;4.82;;;10.70;99.90;;;;;;5088806;28;20056;-69
2021/12/05 12:44:05;;;;;;;10.23;4.78;;;10.70;99.90;;;;;;5063284;28;20427;-70
2021/12/05 12:46:37;;;;;;;11.02;5.25;;;10.80;99.90;;;;;;5078119;28;20102;-70
2021/12/05 12:49:15;;;;;;;11.07;5.30;;;10.80;99.90;;;;;;5095100;28;20101;-69
2021/12/05 12:51:41;;;;;;;10.38;4.95;;;10.80;99.90;;;;;;5094877;28;20098;-69
2021/12/05 12:54:12;;;;;;;9.30;5.15;;;10.60;99.90;;;;;;5094951;28;20075;-69
2021/12/05 12:56:40;;;;;;;9.68;5.18;;;10.80;99.90;;;;;;5062018;28;20047;-68
2021/12/05 12:59:10;;;;;;;10.02;4.93;;;10.70;99.90;;;;;;5078095;28;20052;-67
2021/12/05 13:10:00;;;;;;;12.48;5.38;;;10.80;99.90;;;;;;5094533;28;20056;-68
2021/12/05 13:10:11;;;;;;;11.27;5.28;;;10.70;99.90;;;;;;5001085;28;20516;-70
2021/12/05 13:12:49;;;;;;;10.10;5.35;;;10.60;99.90;;;;;;4997509;28;20447;-67
2021/12/05 13:15:19;;;;;;;8.73;4.85;;;10.60;99.90;;;;;;4997530;28;20053;-68
2021/12/05 13:18:07;;;;;;;9.35;4.80;;;10.30;99.90;;;;;;5013364;28;20113;-67
2021/12/05 13:20:51;;;;;;;9.95;5.00;;;;;;;;;;4975974;28;20124;-68
2021/12/05 13:23:32;;;;;;;10.55;4.93;;;10.70;99.90;;;;;;4977653;28;20078;-67
2021/12/05 13:25:58;;;;;;;8.13;4.78;;;;;;;;;;4987055;28;20065;-68
2021/12/05 13:28:28;;;;;;;9.38;4.95;;;10.90;99.90;;;;;;5013360;28;20188;-68
2021/12/05 13:30:54;;;;;;;8.90;4.80;;;;;;;;;;4959022;28;20059;-67
2021/12/05 13:33:21;;;;;;;11.13;5.10;;;;;;;;;;4988618;28;20443;-67
2021/12/05 13:35:48;;;;;;;8.57;5.10;;;10.50;99.90;;;;;;4993133;28;20089;-69
2021/12/05 13:38:33;;;;;;;10.25;5.05;;;10.80;99.90;;;;;;4993539;28;20061;-68
2021/12/05 13:41:16;;;;;;;12.23;5.03;;;10.60;99.90;;;;;;4961741;28;20046;-68
2021/12/05 13:43:55;;;;;;;10.00;4.97;;;10.10;99.90;;;;;;4982967;28;20488;-68
2021/12/05 13:46:38;;;;;;;11.23;5.75;;;10.60;99.90;;;;;;5011198;28;20092;-67
2021/12/05 13:49:38;;;;;;;9.27;4.90;;;10.40;99.90;;;;;;5033999;28;20124;-68
2021/12/05 13:52:29;;;;;;;10.27;4.75;;;10.50;99.90;;;;;;5013143;28;20504;-68
2021/12/05 13:55:34;;;;;;;9.50;4.47;;;10.70;99.90;;;;;;5013125;28;20126;-68
2021/12/05 13:58:35;;;;;;;9.52;5.40;;;10.60;99.90;;;;;;5012924;28;20448;-68
2021/12/05 14:01:12;;;;;;;9.70;4.97;;;10.70;99.90;;;;;;4996993;28;20068;-71
2021/12/05 14:03:53;;;;;;;11.57;4.82;;;10.70;99.90;;;;;;5005024;28;20558;-69
2021/12/05 14:06:40;;;;;;;10.23;5.03;;;10.70;99.90;;;;;;4995754;28;20064;-68
2021/12/05 14:09:14;;;;;;;10.27;5.10;;;10.80;99.90;;;;;;4996506;28;20053;-68
2021/12/05 14:12:07;;;;;;;9.65;5.35;;;10.30;99.90;;;;;;4979806;28;20061;-67
2021/12/05 14:14:38;;;;;;;11.75;4.82;;;10.60;99.90;;;;;;4988429;28;20100;-67
2021/12/05 14:17:33;;;;;;;10.75;5.18;;;10.50;99.90;;;;;;4980489;28;20380;-68
2021/12/05 14:20:00;;;;;;;10.13;5.17;;;10.40;99.90;;;;;;5012593;28;20444;-67
2021/12/05 14:22:29;;;;;;;10.18;5.20;;;10.20;99.90;;;;;;4996062;28;20050;-67
2021/12/05 14:24:56;;;;;;;10.75;5.57;;;10.50;99.90;;;;;;4995638;28;20056;-68
2021/12/05 14:27:28;;;;;;;10.27;5.25;;;10.50;99.90;;;;;;4984661;28;20054;-67
2021/12/05 14:29:54;;;;;;;13.23;5.25;;;10.60;99.90;;;;;;5013033;28;20046;-68
2021/12/05 14:32:27;;;;;;;8.68;4.95;;;10.50;99.90;;;;;;4996822;28;20048;-67
2021/12/05 14:35:01;;;;;;;10.05;5.68;;;10.50;99.90;;;;;;5009303;28;20044;-67
2021/12/05 14:37:28;;;;;;;10.07;5.18;;;10.50;99.90;;;;;;5052884;28;20052;-68
2021/12/05 14:39:59;;;;;;;9.82;5.45;;;10.40;99.90;;;;;;5036399;28;20507;-67
2021/12/05 14:42:27;;;;;;;9.10;5.28;;;10.20;99.90;;;;;;5036023;28;20190;-68
2021/12/05 14:44:54;;;;;;;11.20;5.20;;;;;;;;;;5036023;28;20451;-67
2021/12/05 14:47:22;;;;;;;11.52;5.32;;;10.40;99.90;;;;;;5053576;28;20391;-67
2021/12/05 14:49:52;;;;;;;9.38;5.50;;;10.30;99.90;;;;;;5046135;28;20080;-67
2021/12/05 14:52:20;;;;;;;9.15;5.53;;;10.40;99.90;;;;;;5015200;28;20451;-67
2021/12/05 14:54:46;;;;;;;10.00;5.60;;;10.70;99.90;;;;;;5049193;28;20372;-67
2021/12/05 14:57:27;;;;;;;10.48;5.55;;;10.50;99.90;;;;;;5032613;28;20065;-68
2021/12/05 14:59:59;;;;;;;9.85;5.45;;;;;;;;;;5034069;28;20364;-69
2021/12/05 15:02:24;;;;;;;9.40;5.50;;;10.50;99.90;;;;;;5032154;28;20487;-67
2021/12/05 15:04:51;;;;;;;11.30;5.38;;;10.70;99.90;;;;;;5032296;28;20041;-68
2021/12/05 15:07:19;;;;;;;13.20;6.15;;;10.40;99.90;;;;;;5032161;28;20064;-69
2021/12/05 15:09:46;;;;;;;9.77;5.15;;;10.40;99.90;;;;;;5032251;28;20049;-68
2021/12/05 15:12:18;;;;;;;10.57;5.68;;;10.10;99.90;;;;;;5016599;28;20450;-67
2021/12/05 15:14:46;;;;;;;11.55;5.30;;;10.30;99.90;;;;;;5032519;28;20129;-69
2021/12/05 15:17:15;;;;;;;10.65;6.13;;;10.40;99.90;;;;;;5033301;28;20422;-67
2021/12/05 15:19:44;;;;;;;10.43;5.47;;;10.40;99.90;;;;;;5016646;28;20060;-68
2021/12/05 15:22:12;;;;;;;10.48;5.97;;;;;;;;;;5033350;28;20054;-67
2021/12/05 15:24:38;;;;;;;10.68;6.20;;;10.40;99.90;;;;;;5031964;28;20056;-67
2021/12/05 15:27:10;;;;;;;12.07;6.63;;;10.30;99.90;;;;;;5033555;28;20075;-68
2021/12/05 15:29:37;;;;;;;9.87;6.20;;;;;;;;;;5032424;28;20431;-67
2021/12/05 15:32:03;;;;;;;9.95;6.15;;;;;;;;;;5031782;28;20057;-68
2021/12/05 15:34:32;;;;;;;12.18;7.00;;;10.30;99.90;;;;;;5031965;28;20045;-68
2021/12/05 15:36:58;;;;;;;12.73;7.10;;;10.60;99.90;;;;;;5031942;28;20053;-68
2021/12/05 15:50:29;;;;;;;12.98;7.18;;;;;;;;;;5108649;27;1438407;-62
2021/12/05 15:53:10;;;;;;;9.73;6.90;;;;;;;;;;5130889;28;20116;-59
2021/12/05 15:55:41;;;;;;;11.48;6.90;;;10.70;99.90;;;;;;5129831;28;20047;-59
2021/12/05 15:58:24;;;;;;;11.25;6.88;;;10.30;99.90;;;;;;5130212;28;20077;-65
2021/12/05 16:01:13;;;;;;;9.45;6.95;;;10.40;99.90;;;;;;5130640;28;20047;-64
2021/12/05 16:03:42;;;;;;;11.50;6.95;;;10.30;99.90;;;;;;5130594;28;20430;-64
2021/12/05 16:06:08;;;;;;;10.38;6.47;;;9.80;99.90;;;;;;5130134;28;20096;-60
2021/12/05 16:08:34;;;;;;;12.10;7.03;;;10.50;99.90;;;;;;5131069;28;20035;-60
2021/12/05 16:11:00;;;;;;;11.80;6.88;;;10.30;99.90;;;;;;5130061;28;20053;-59
2021/12/05 16:13:34;;;;;;;9.82;6.32;;;10.10;99.90;;;;;;5131497;28;20127;-59
2021/12/05 16:16:12;;;;;;;10.90;6.47;;;10.40;99.90;;;;;;5131160;27;20081;-60
2021/12/05 16:18:39;;;;;;;11.43;7.15;;;10.10;99.90;;;;;;5131377;27;20046;-60
2021/12/05 16:21:22;;;;;;;11.95;6.88;;;10.30;99.90;;;;;;5131359;27;20091;-59
2021/12/05 16:23:49;;;;;;;10.73;7.13;;;10.40;99.90;;;;;;5131356;27;20054;-60
2021/12/05 16:26:21;;;;;;;11.95;6.53;;;;;;;;;;5130516;27;20092;-59
2021/12/05 16:28:53;;;;;;;10.65;6.63;;;10.20;99.90;;;;;;5131286;27;20092;-60
2021/12/05 16:31:23;;;;;;;10.37;6.23;;;10.30;99.90;;;;;;5131232;27;20418;-60
2021/12/05 16:33:53;;;;;;;10.02;6.70;;;10.20;99.90;;;;;;5130780;27;20500;-60
2021/12/05 16:36:21;;;;;;;9.02;6.13;;;10.20;99.90;;;;;;5131093;27;20452;-60
2021/12/05 16:38:50;;;;;;;12.25;6.72;;;10.20;99.90;;;;;;5129629;28;20459;-58
2021/12/05 16:41:28;;;;;;;11.68;6.47;;;10.30;99.90;;;;;;5129497;28;20039;-59
2021/12/05 16:44:01;;;;;;;9.98;6.43;;;10.20;99.90;;;;;;5129341;28;20054;-59
2021/12/05 16:46:33;;;;;;;10.15;6.22;;;10.10;99.90;;;;;;5129800;28;20040;-59
2021/12/05 16:49:00;;;;;;;9.18;6.15;;;10.30;99.90;;;;;;5130287;28;20446;-59
2021/12/05 16:51:34;;;;;;;10.23;6.75;;;10.30;99.90;;;;;;5117075;27;20051;-58
2021/12/05 16:54:23;;;;;;;10.93;6.22;;;10.00;99.90;;;;;;5115758;28;20124;-59
2021/12/05 16:56:51;;;;;;;9.63;6.28;;;10.30;99.90;;;;;;5115646;28;20051;-59
2021/12/05 16:59:23;;;;;;;9.00;6.43;;;10.20;99.90;;;;;;5116914;28;20559;-59
2021/12/05 17:02:19;;;;;;;8.80;5.87;;;;;;;;;;5116950;28;20078;-59
2021/12/05 17:05:04;;;;;;;9.52;6.05;;;10.10;99.90;;;;;;5033878;28;20053;-59
2021/12/05 17:07:47;;;;;;;10.95;6.40;;;10.20;99.90;;;;;;5033841;28;20548;-59
2021/12/05 17:10:21;;;;;;;9.38;6.97;;;10.10;99.90;;;;;;5033790;28;20049;-59
2021/12/05 17:12:48;;;;;;;9.15;5.80;;;10.00;99.90;;;;;;5033773;28;20045;-59
2021/12/05 17:15:19;;;;;;;10.40;6.82;;;10.40;99.90;;;;;;5033780;28;20060;-59
2021/12/05 17:17:45;;;;;;;9.02;6.05;;;10.00;99.90;;;;;;5033665;28;20538;-59
2021/12/05 17:20:18;;;;;;;9.98;6.63;;;10.20;99.90;;;;;;5033651;28;20491;-60
2021/12/05 17:22:51;;;;;;;9.63;6.18;;;10.30;99.90;;;;;;5033837;28;20481;-58
2021/12/05 17:25:31;;;;;;;9.50;6.40;;;;;;;;;;5033576;28;20132;-59
2021/12/05 17:27:57;;;;;;;9.75;6.15;;;10.20;99.90;;;;;;5033558;28;20080;-60
2021/12/05 17:30:23;;;;;;;10.13;6.53;;;;;;;;;;5033470;28;20483;-59
2021/12/05 17:32:49;;;;;;;11.38;6.72;;;10.30;99.90;;;;;;5033450;28;20469;-59
2021/12/05 17:35:15;;;;;;;10.38;6.60;;;10.10;99.90;;;;;;5033535;28;20085;-59
2021/12/05 17:37:44;;;;;;;10.93;6.57;;;10.20;99.90;;;;;;5033239;28;20057;-58
2021/12/05 17:40:10;;;;;;;8.85;6.38;;;10.00;99.90;;;;;;5042083;28;20433;-59
2021/12/05 17:42:38;;;;;;;10.40;6.70;;;10.10;99.90;;;;;;5116101;28;20088;-59
2021/12/05 17:45:06;;;;;;;11.85;7.57;;;9.70;99.90;;;;;;5115807;27;20081;-58
2021/12/05 17:47:32;;;;;;;11.85;6.78;;;10.10;99.90;;;;;;5116331;28;20107;-59
2021/12/05 17:49:59;;;;;;;10.15;7.00;;;10.20;99.90;;;;;;5115629;27;20055;-58
2021/12/05 17:52:26;;;;;;;10.75;6.90;;;10.10;99.90;;;;;;5115972;27;20052;-59
2021/12/05 17:55:03;;;;;;;10.65;6.97;;;10.00;99.90;;;;;;5116745;28;20055;-58
2021/12/05 17:57:44;;;;;;;12.18;7.05;;;10.10;99.90;;;;;;5115880;28;20036;-59
2021/12/05 18:00:21;;;;;;;10.82;7.28;;;10.20;99.90;;;;;;5115798;28;20043;-59
2021/12/05 18:02:53;;;;;;;10.55;6.60;;;10.30;99.90;;;;;;5114415;28;20044;-59
2021/12/05 18:05:26;;;;;;;12.27;7.55;;;10.00;99.90;;;;;;5115373;28;20051;-59
2021/12/05 18:07:53;;;;;;;;;;;10.00;99.90;;;;;;5115580;28;20553;-59
2021/12/05 18:10:21;;;;;;;9.48;6.75;;;10.40;99.90;;;;;;5115143;28;19927;-59
2021/12/05 18:12:49;;;;;;;11.27;7.55;;;;;;;;;;5115566;28;20044;-58
2021/12/05 18:15:21;;;;;;;12.43;7.70;;;;;;;;;;5112992;28;20047;-65
2021/12/05 18:17:47;;;;;;;12.30;7.47;;;9.80;99.90;;;;;;5114503;28;20040;-64
2021/12/05 18:20:15;;;;;;;10.68;7.60;;;10.20;99.90;;;;;;5113874;28;20054;-65
2021/12/05 18:22:41;;;;;;;10.48;6.90;;;9.80;99.90;;;;;;5114134;28;20044;-64
2021/12/05 18:25:09;;;;;;;9.82;7.07;;;10.00;99.90;;;;;;5113485;28;20426;-64
2021/12/05 18:27:36;;;;;;;10.82;6.97;;;10.10;99.90;;;;;;5109395;28;20036;-64
2021/12/05 18:30:03;;;;;;;10.50;7.32;;;10.10;99.90;;;;;;5094825;28;20044;-64
2021/12/05 18:32:29;;;;;;;11.77;7.35;;;10.20;99.90;;;;;;5094382;28;20443;-65
2021/12/05 18:34:55;;;;;;;9.63;6.65;;;10.10;99.90;;;;;;5095245;28;20044;-64
2021/12/05 18:37:21;;;;;;;11.43;7.72;;;10.00;99.90;;;;;;5107809;28;20049;-65
2021/12/05 18:39:49;;;;;;;9.95;6.70;;;10.20;99.90;;;;;;5111592;28;20385;-64
2021/12/05 18:42:17;;;;;;;10.48;7.22;;;10.10;99.90;;;;;;5114120;28;20047;-64
2021/12/05 18:44:48;;;;;;;10.73;6.93;;;10.00;99.90;;;;;;5114164;28;20048;-65
2021/12/05 18:47:15;;;;;;;9.60;6.80;;;10.00;99.90;;;;;;5112267;28;20393;-65
2021/12/05 18:49:41;;;;;;;9.90;6.70;;;10.00;99.90;;;;;;5112109;28;20550;-64
2021/12/05 18:52:07;;;;;;;9.25;6.93;;;9.80;99.90;;;;;;5114838;28;20039;-64
2021/12/05 18:54:35;;;;;;;10.32;6.85;;;9.80;99.90;;;;;;5113475;28;20043;-64
2021/12/05 18:57:02;;;;;;;8.68;6.22;;;9.70;99.90;;;;;;5113773;28;20396;-65
2021/12/05 18:59:31;;;;;;;9.90;7.13;;;9.80;99.90;;;;;;5111733;28;20545;-65
2021/12/05 19:04:49;;;;;;;9.73;6.78;;;;;;;;;;5113333;28;20070;-64
2021/12/05 19:07:22;;;;;;;10.23;6.80;;;9.70;99.90;;;;;;5114570;28;20404;-64
2021/12/05 19:12:17;;;;;;;10.13;6.50;;;10.10;99.90;;;;;;5112720;28;20490;-65
2021/12/05 19:14:45;;;;;;;9.50;6.55;;;10.00;99.90;;;;;;5113161;28;20043;-65
2021/12/05 19:17:16;;;;;;;8.38;5.78;;;;;;;;;;5114446;28;20488;-64
2021/12/05 19:19:44;;;;;;;10.13;6.80;;;9.60;99.90;;;;;;5112995;28;20070;-64
2021/12/05 19:22:13;;;;;;;9.88;6.43;;;10.20;99.90;;;;;;5111990;28;20111;-64
2021/12/05 19:24:39;;;;;;;9.52;6.15;;;9.90;99.90;;;;;;5112892;28;20047;-65